Time;durP1;ratioP1;P1;durP2;ratioP2;P2;SDS_P1;SDS_P2;PMS_P1;PMS_P2;Temp;Humidity;BMP_temperature;BMP_pressure;BME280_temperature;BME280_humidity;BME280_pressure;Samples;Min_cycle;Max_cycle;Signal;HPM_P1;HPM_P2
2024/02/25 00:01:15;;;;;;;11.25;7.03;;;;;;;11.93;80.04;100173.38;5088631;28;20031;-77
2024/02/25 00:03:40;;;;;;;13.27;7.40;;;;;;;12.04;78.16;100156.56;5079163;28;20020;-78
2024/02/25 00:06:06;;;;;;;10.88;7.03;;;;;;;12.00;78.66;100168.75;5070286;28;20466;-78
2024/02/25 00:08:31;;;;;;;12.70;6.60;;;;;;;11.96;78.87;100169.44;5070090;28;20056;-77
2024/02/25 00:10:58;;;;;;;13.00;7.00;;;;;;;11.98;78.25;100168.16;5087927;28;20038;-78
2024/02/25 00:13:24;;;;;;;13.35;7.68;;;;;;;12.15;78.92;100186.25;5088286;28;20031;-78
2024/02/25 00:15:50;;;;;;;12.10;6.90;;;;;;;11.41;82.21;100159.56;5088202;28;20042;-78
2024/02/25 00:18:15;;;;;;;13.52;7.57;;;;;;;11.44;85.31;100178.63;5088958;28;20036;-79
2024/02/25 00:20:40;;;;;;;11.95;6.68;;;;;;;11.86;82.65;100175.28;5089765;28;20020;-77
2024/02/25 00:23:06;;;;;;;13.65;6.60;;;;;;;12.11;81.60;100183.22;5088581;28;20031;-77
2024/02/25 00:25:31;;;;;;;11.07;6.55;;;;;;;12.06;82.12;100175.88;5074830;28;20028;-78
2024/02/25 00:27:57;;;;;;;12.30;6.43;;;;;;;11.61;83.91;100154.00;5087879;28;20127;-80
2024/02/25 00:30:22;;;;;;;14.07;6.88;;;;;;;11.58;84.27;100155.25;5069728;28;20028;-77
2024/02/25 00:32:47;;;;;;;11.00;6.82;;;;;;;11.91;84.85;100178.13;5087799;28;20035;-77
2024/02/25 00:35:13;;;;;;;11.95;7.32;;;;;;;11.72;85.03;100171.13;5087427;28;20496;-77
2024/02/25 00:37:38;;;;;;;11.88;6.40;;;;;;;11.36;86.89;100167.41;5088061;28;20550;-79
2024/02/25 00:40:05;;;;;;;13.73;6.15;;;;;;;11.45;86.22;100169.56;5088411;28;20024;-78
2024/02/25 00:42:30;;;;;;;12.10;6.60;;;;;;;11.24;86.78;100136.13;5087606;28;20579;-78
2024/02/25 00:44:56;;;;;;;15.18;6.65;;;;;;;11.23;89.07;100155.81;5083370;28;20082;-78
2024/02/25 00:47:21;;;;;;;9.45;6.18;;;;;;;11.47;87.99;100156.00;5086957;28;20028;-77
2024/02/25 00:49:48;;;;;;;14.45;7.35;;;;;;;12.01;85.29;100172.22;5069115;28;20027;-77
2024/02/25 00:52:13;;;;;;;15.27;7.60;;;;;;;11.92;85.59;100146.88;5086979;28;20024;-77
2024/02/25 00:54:43;;;;;;;17.13;7.45;;;;;;;11.64;88.12;100146.34;5087537;28;20511;-77
2024/02/25 00:57:08;;;;;;;11.52;7.25;;;;;;;11.93;86.89;100161.84;5066007;28;20149;-77
2024/02/25 00:59:33;;;;;;;14.23;7.05;;;;;;;12.04;87.29;100163.78;5087220;28;20065;-78
2024/02/25 01:01:59;;;;;;;11.00;6.43;;;;;;;12.00;88.54;100174.09;5087254;28;20590;-78
2024/02/25 01:04:24;;;;;;;12.73;7.05;;;;;;;11.74;90.08;100139.66;5087125;28;20114;-77
2024/02/25 01:06:51;;;;;;;13.20;6.85;;;;;;;11.89;90.62;100158.00;5086940;28;20047;-79
2024/02/25 01:09:18;;;;;;;15.35;7.53;;;;;;;11.97;90.88;100168.38;5086665;28;20096;-78
2024/02/25 01:11:44;;;;;;;11.73;6.47;;;;;;;12.25;88.01;100173.97;5086934;28;20097;-77
2024/02/25 01:14:12;;;;;;;13.57;6.40;;;;;;;12.09;89.14;100157.75;5086937;28;20031;-77
2024/02/25 01:16:40;;;;;;;12.32;6.57;;;;;;;12.02;90.80;100147.97;5068587;28;20024;-77
2024/02/25 01:19:06;;;;;;;12.27;6.63;;;;;;;11.84;91.33;100123.91;5086031;28;20036;-77
2024/02/25 01:21:31;;;;;;;9.85;6.35;;;;;;;12.02;90.49;100153.31;5080646;28;20031;-77
2024/02/25 01:23:56;;;;;;;12.32;6.82;;;;;;;12.09;89.25;100131.81;5079811;28;20028;-77
2024/02/25 01:26:22;;;;;;;13.15;6.65;;;;;;;12.20;88.55;100144.44;5086928;28;20151;-78
2024/02/25 01:28:48;;;;;;;12.43;6.60;;;;;;;11.99;90.00;100139.56;5080499;28;20045;-78
2024/02/25 01:31:14;;;;;;;18.55;6.50;;;;;;;11.95;90.73;100141.91;5085300;28;20036;-78
2024/02/25 01:33:39;;;;;;;13.02;6.93;;;;;;;12.03;89.19;100133.56;5082478;28;20055;-77
2024/02/25 01:36:06;;;;;;;9.18;6.20;;;;;;;11.77;90.82;100120.50;5086431;28;20028;-79
2024/02/25 01:38:32;;;;;;;11.77;6.15;;;;;;;11.83;91.55;100128.44;5064966;28;20684;-79
2024/02/25 01:40:57;;;;;;;14.15;6.38;;;;;;;12.12;91.15;100151.97;5085291;28;20051;-78
2024/02/25 01:43:23;;;;;;;11.68;6.63;;;;;;;11.91;94.13;100140.72;5085180;28;20032;-77
2024/02/25 01:45:49;;;;;;;10.35;6.00;;;;;;;11.94;93.94;100132.25;5088809;28;20024;-78
2024/02/25 01:48:18;;;;;;;12.00;6.85;;;;;;;11.78;94.82;100103.44;5088708;28;20024;-77
2024/02/25 01:50:43;;;;;;;12.68;6.60;;;;;;;12.10;94.15;100146.03;5088313;28;20119;-77
2024/02/25 01:53:10;;;;;;;12.05;6.43;;;;;;;11.95;95.56;100131.22;5089053;28;20054;-78
2024/02/25 01:55:36;;;;;;;11.88;6.85;;;;;;;12.08;94.63;100145.44;5087076;28;20063;-78
2024/02/25 01:58:02;;;;;;;12.63;7.05;;;;;;;12.27;93.49;100155.84;5087099;28;20505;-78
2024/02/25 02:00:29;;;;;;;13.35;7.00;;;;;;;11.91;94.53;100119.34;5087931;28;20043;-77
2024/02/25 02:02:55;;;;;;;15.30;7.00;;;;;;;11.92;95.51;100126.31;5068352;28;20059;-77
2024/02/25 02:05:21;;;;;;;10.07;5.97;;;;;;;11.78;97.07;100124.81;5086346;28;20044;-78
2024/02/25 02:07:47;;;;;;;12.10;6.85;;;;;;;11.88;96.68;100141.13;5086701;28;20038;-78
2024/02/25 02:10:16;;;;;;;11.02;8.23;;;;;;;11.69;97.85;100142.19;5068200;28;20162;-78
2024/02/25 02:12:42;;;;;;;16.13;11.18;;;;;;;11.38;100.00;100136.81;5086884;28;20026;-77
2024/02/25 02:15:11;;;;;;;11.35;8.05;;;;;;;11.27;100.00;100126.84;5086201;28;20034;-79
2024/02/25 02:17:40;;;;;;;13.23;7.85;;;;;;;11.50;99.95;100128.84;5086618;28;20024;-78
2024/02/25 02:20:11;;;;;;;13.02;7.32;;;;;;;11.56;99.48;100138.63;5086391;28;20032;-78
2024/02/25 02:22:40;;;;;;;11.90;6.75;;;;;;;11.86;95.82;100135.19;5086520;28;20028;-78
2024/02/25 02:25:06;;;;;;;11.43;7.60;;;;;;;12.02;94.38;100147.97;5086416;28;20529;-78
2024/02/25 02:27:31;;;;;;;12.15;7.57;;;;;;;11.89;93.20;100137.47;5085827;28;20078;-77
2024/02/25 02:29:57;;;;;;;13.30;7.30;;;;;;;11.27;98.65;100130.31;5067971;28;20115;-79
2024/02/25 02:32:22;;;;;;;14.02;7.93;;;;;;;11.22;100.00;100140.88;5090285;28;20028;-77
2024/02/25 02:34:48;;;;;;;15.02;7.97;;;;;;;11.24;100.00;100148.66;5089956;28;20417;-78
2024/02/25 02:37:13;;;;;;;11.05;7.22;;;;;;;11.12;100.00;100142.41;5089158;28;20401;-78
2024/02/25 02:39:39;;;;;;;13.15;7.53;;;;;;;11.29;100.00;100164.00;5089762;28;20020;-77
2024/02/25 02:42:05;;;;;;;12.18;7.40;;;;;;;11.17;100.00;100170.06;5089865;28;20088;-78
2024/02/25 02:44:31;;;;;;;11.82;6.78;;;;;;;10.99;100.00;100138.00;5089585;28;20139;-78
2024/02/25 02:46:57;;;;;;;14.32;7.30;;;;;;;11.01;100.00;100146.59;5089717;28;20195;-79
2024/02/25 02:49:22;;;;;;;13.93;7.90;;;;;;;10.58;100.00;100171.38;5089531;28;20054;-78
2024/02/25 02:51:47;;;;;;;16.02;10.55;;;;;;;10.59;100.00;100170.34;5089945;28;20028;-79
2024/02/25 02:54:13;;;;;;;17.67;12.20;;;;;;;10.40;100.00;100143.63;5089082;28;20025;-78
2024/02/25 02:56:38;;;;;;;20.88;7.78;;;;;;;10.16;100.00;100155.00;5089459;28;20146;-78
2024/02/25 02:59:03;;;;;;;13.00;8.13;;;;;;;10.24;100.00;100171.56;5089424;28;20020;-78
2024/02/25 03:01:29;;;;;;;11.32;7.38;;;;;;;10.37;100.00;100152.03;5089409;28;20020;-78
2024/02/25 03:03:54;;;;;;;10.98;6.90;;;;;;;10.31;100.00;100128.91;5089277;28;20020;-78
2024/02/25 03:06:20;;;;;;;11.60;7.53;;;;;;;10.52;100.00;100140.25;5089410;28;20497;-78
2024/02/25 03:08:45;;;;;;;12.98;7.35;;;;;;;10.71;100.00;100155.28;5089072;28;20043;-77
2024/02/25 03:11:11;;;;;;;12.85;7.47;;;;;;;10.51;100.00;100133.28;5089257;28;20107;-79
2024/02/25 03:13:36;;;;;;;12.15;6.70;;;;;;;10.66;100.00;100171.09;5089644;28;20030;-78
2024/02/25 03:16:02;;;;;;;12.30;7.90;;;;;;;10.93;100.00;100181.56;5088870;28;20032;-77
2024/02/25 03:18:27;;;;;;;11.73;6.82;;;;;;;10.95;100.00;100169.66;5089201;28;20027;-77
2024/02/25 03:20:53;;;;;;;14.45;7.32;;;;;;;11.19;100.00;100172.50;5088866;28;20028;-77
2024/02/25 03:23:18;;;;;;;11.65;6.50;;;;;;;11.14;100.00;100167.84;5089311;28;20021;-78
2024/02/25 03:25:43;;;;;;;13.60;7.10;;;;;;;11.14;100.00;100157.16;5088765;28;20400;-78
2024/02/25 03:28:09;;;;;;;11.95;6.88;;;;;;;11.15;100.00;100152.63;5091857;28;20039;-78
2024/02/25 03:30:35;;;;;;;14.55;7.90;;;;;;;11.04;100.00;100130.16;5089009;28;20016;-77
2024/02/25 03:33:01;;;;;;;12.77;6.75;;;;;;;11.19;100.00;100149.28;5088633;28;20036;-78
2024/02/25 03:35:30;;;;;;;13.23;7.05;;;;;;;11.38;100.00;100147.47;5088927;28;20051;-78
2024/02/25 03:37:55;;;;;;;14.07;6.57;;;;;;;11.16;100.00;100154.28;5088378;28;20036;-77
2024/02/25 03:40:24;;;;;;;10.05;6.72;;;;;;;11.36;100.00;100159.41;5088574;28;20032;-78
2024/02/25 03:42:50;;;;;;;12.75;6.40;;;;;;;11.38;100.00;100141.31;5088492;28;20058;-77
2024/02/25 03:45:16;;;;;;;8.95;5.95;;;;;;;11.66;100.00;100146.94;5070306;28;20024;-77
2024/02/25 03:47:42;;;;;;;14.02;6.82;;;;;;;11.82;100.00;100150.84;5088601;28;20032;-78
2024/02/25 03:50:11;;;;;;;12.15;6.45;;;;;;;11.70;100.00;100127.81;5088289;28;20028;-77
2024/02/25 03:52:38;;;;;;;13.07;6.50;;;;;;;11.93;100.00;100156.50;5088969;28;20036;-79
2024/02/25 03:55:04;;;;;;;14.05;6.55;;;;;;;12.18;100.00;100185.81;5088827;28;20035;-78
2024/02/25 03:57:30;;;;;;;14.88;7.47;;;;;;;12.30;99.50;100181.31;5088638;28;20118;-78
2024/02/25 03:59:55;;;;;;;14.38;6.70;;;;;;;12.04;100.00;100161.91;5088635;28;20254;-78
2024/02/25 04:02:20;;;;;;;11.95;6.65;;;;;;;11.82;100.00;100184.78;5088287;28;20040;-78
2024/02/25 04:04:46;;;;;;;14.93;7.63;;;;;;;12.03;100.00;100176.34;5088236;28;20032;-77
2024/02/25 04:07:12;;;;;;;14.43;7.53;;;;;;;11.93;100.00;100152.00;5087853;28;20111;-78
2024/02/25 04:09:37;;;;;;;13.15;7.10;;;;;;;11.80;100.00;100171.63;5088624;28;20043;-78
2024/02/25 04:12:03;;;;;;;13.45;7.13;;;;;;;11.94;100.00;100188.38;5087852;28;20036;-76
2024/02/25 04:14:28;;;;;;;10.85;6.57;;;;;;;11.91;100.00;100199.50;5088043;28;20039;-78
2024/02/25 04:16:54;;;;;;;12.23;7.68;;;;;;;12.00;100.00;100203.50;5087135;28;20064;-77
2024/02/25 04:19:19;;;;;;;15.77;12.25;;;;;;;11.91;100.00;100202.19;5088420;28;20027;-77
2024/02/25 04:21:45;;;;;;;39.45;31.23;;;;;;;11.55;100.00;100185.09;5087704;28;20427;-78
2024/02/25 04:24:10;;;;;;;42.33;34.50;;;;;;;11.69;100.00;100184.91;5087851;28;20494;-78
2024/02/25 04:26:35;;;;;;;31.00;26.23;;;;;;;11.68;100.00;100199.34;5087264;28;20753;-79
2024/02/25 04:29:01;;;;;;;28.08;23.27;;;;;;;11.84;100.00;100201.41;5087512;28;20020;-78
2024/02/25 04:31:26;;;;;;;15.88;8.55;;;;;;;11.31;100.00;100188.63;5087348;28;20032;-77
2024/02/25 04:33:52;;;;;;;14.90;8.60;;;;;;;11.53;100.00;100224.56;5069209;28;20697;-79
2024/02/25 04:36:20;;;;;;;14.23;8.85;;;;;;;11.76;100.00;100213.19;5087724;28;20591;-78
2024/02/25 04:38:46;;;;;;;12.98;9.43;;;;;;;12.00;100.00;100203.50;5087036;28;20058;-78
2024/02/25 04:41:12;;;;;;;17.08;10.30;;;;;;;11.62;100.00;100160.97;5069707;28;20032;-79
2024/02/25 04:43:37;;;;;;;15.48;9.40;;;;;;;11.27;100.00;100130.31;5087777;28;20031;-78
2024/02/25 04:46:03;;;;;;;15.90;9.95;;;;;;;11.27;100.00;100097.47;5087604;28;20043;-79
2024/02/25 04:48:28;;;;;;;14.40;8.40;;;;;;;11.33;100.00;100098.44;5086863;28;20035;-77
2024/02/25 04:50:56;;;;;;;11.63;6.72;;;;;;;11.18;100.00;100083.63;5087115;28;20089;-77
2024/02/25 04:53:22;;;;;;;14.20;7.63;;;;;;;11.10;100.00;100065.22;5068354;28;20107;-77
2024/02/25 04:55:47;;;;;;;12.68;7.05;;;;;;;11.38;100.00;100109.25;5087095;28;20036;-77
2024/02/25 04:58:13;;;;;;;15.85;7.47;;;;;;;11.42;100.00;100162.03;5086701;28;20024;-77
2024/02/25 05:00:38;;;;;;;16.08;7.72;;;;;;;11.22;100.00;100172.91;5087004;28;20523;-78
2024/02/25 05:03:05;;;;;;;16.75;7.97;;;;;;;11.29;100.00;100191.50;5087067;28;20450;-77
2024/02/25 05:05:30;;;;;;;15.38;8.57;;;;;;;11.31;100.00;100236.69;5086959;28;20035;-78
2024/02/25 05:07:56;;;;;;;16.58;9.55;;;;;;;11.16;100.00;100235.16;5086636;28;20020;-78
2024/02/25 05:10:22;;;;;;;14.60;9.00;;;;;;;11.01;100.00;100238.16;5086905;28;20028;-77
2024/02/25 05:12:48;;;;;;;17.67;11.38;;;;;;;10.71;100.00;100215.81;5086362;28;20024;-78
2024/02/25 05:15:14;;;;;;;19.20;12.18;;;;;;;10.85;100.00;100212.84;5086681;28;20122;-78
2024/02/25 05:17:40;;;;;;;22.75;12.48;;;;;;;10.91;100.00;100234.34;5085969;28;20161;-77
2024/02/25 05:20:06;;;;;;;14.90;9.25;;;;;;;10.53;100.00;100256.56;5068593;28;20465;-78
2024/02/25 05:22:32;;;;;;;14.57;9.25;;;;;;;10.48;100.00;100256.34;5087134;28;20024;-79
2024/02/25 05:24:58;;;;;;;15.75;9.77;;;;;;;10.49;100.00;100250.00;5086769;28;20050;-78
2024/02/25 05:27:28;;;;;;;24.20;11.20;;;;;;;10.88;100.00;100218.78;5085885;28;20048;-77
2024/02/25 05:29:57;;;;;;;17.20;11.63;;;;;;;11.29;100.00;100239.56;5066439;28;20412;-77
2024/02/25 05:32:23;;;;;;;14.70;10.60;;;;;;;11.14;100.00;100221.22;5081660;28;20031;-77
2024/02/25 05:34:48;;;;;;;17.30;11.95;;;;;;;10.91;100.00;100205.81;5068317;28;20440;-78
2024/02/25 05:37:16;;;;;;;17.38;10.65;;;;;;;10.74;100.00;100234.06;5086363;28;20077;-78
2024/02/25 05:39:42;;;;;;;16.38;9.93;;;;;;;10.60;100.00;100233.31;5086565;28;20028;-78
2024/02/25 05:42:07;;;;;;;18.00;10.88;;;;;;;10.93;100.00;100224.25;5086515;28;20133;-78
2024/02/25 05:44:33;;;;;;;25.27;13.65;;;;;;;10.91;100.00;100192.47;5068356;28;20027;-79
2024/02/25 05:46:58;;;;;;;20.10;12.13;;;;;;;10.99;100.00;100218.06;5086311;28;20631;-78
2024/02/25 05:49:24;;;;;;;18.17;11.43;;;;;;;11.14;100.00;100207.88;5068052;28;20099;-79
2024/02/25 05:51:49;;;;;;;13.85;9.13;;;;;;;11.06;100.00;100214.31;5086188;28;20104;-79
2024/02/25 05:54:14;;;;;;;15.93;9.32;;;;;;;11.25;100.00;100196.47;5086273;28;20032;-78
2024/02/25 05:56:40;;;;;;;21.10;13.20;;;;;;;11.19;100.00;100188.53;5086033;28;20020;-78
2024/02/25 05:59:05;;;;;;;23.70;15.25;;;;;;;11.22;100.00;100196.91;5086040;28;20070;-78
2024/02/25 06:01:35;;;;;;;49.55;26.17;;;;;;;11.13;100.00;100218.75;5085454;28;20028;-78
2024/02/25 06:04:02;;;;;;;14.98;10.00;;;;;;;11.13;100.00;100192.88;5086474;28;20043;-79
2024/02/25 06:06:28;;;;;;;11.93;8.15;;;;;;;11.01;100.00;100178.63;5090175;28;20036;-78
2024/02/25 06:08:53;;;;;;;18.27;9.63;;;;;;;11.36;100.00;100223.47;5089970;28;20032;-78
2024/02/25 06:11:18;;;;;;;23.80;15.30;;;;;;;11.53;100.00;100229.91;5089900;28;20115;-78
2024/02/25 06:13:44;;;;;;;27.23;13.13;;;;;;;11.59;100.00;100239.69;5090347;28;20846;-77
2024/02/25 06:16:09;;;;;;;15.25;9.55;;;;;;;11.56;100.00;100224.09;5090251;28;20058;-78
2024/02/25 06:18:35;;;;;;;17.73;9.75;;;;;;;11.97;100.00;100240.53;5090110;28;20036;-78
2024/02/25 06:21:00;;;;;;;18.83;10.32;;;;;;;11.86;100.00;100245.56;5089938;28;20032;-78
2024/02/25 06:23:25;;;;;;;18.17;10.77;;;;;;;11.81;100.00;100244.59;5090020;28;20116;-76
2024/02/25 06:25:56;;;;;;;20.05;12.32;;;;;;;11.76;100.00;100241.78;5089430;28;20443;-78
2024/02/25 06:28:22;;;;;;;26.45;19.95;;;;;;;11.49;100.00;100207.34;5089964;28;20138;-77
2024/02/25 06:30:47;;;;;;;21.88;15.07;;;;;;;11.63;100.00;100251.56;5089612;28;20020;-78
2024/02/25 06:33:12;;;;;;;24.02;10.35;;;;;;;11.32;100.00;100243.66;5090188;28;20173;-78
2024/02/25 06:35:38;;;;;;;17.63;9.80;;;;;;;10.92;100.00;100249.31;5089515;28;20637;-77
2024/02/25 06:38:03;;;;;;;18.17;9.75;;;;;;;10.96;100.00;100239.84;5089057;28;20178;-77
2024/02/25 06:40:29;;;;;;;17.45;9.38;;;;;;;11.13;100.00;100240.13;5089771;28;20507;-79
2024/02/25 06:42:54;;;;;;;17.98;10.40;;;;;;;11.37;100.00;100262.50;5089594;28;20069;-77
2024/02/25 06:45:20;;;;;;;16.50;11.25;;;;;;;11.20;100.00;100201.66;5089944;28;20046;-77
2024/02/25 06:47:46;;;;;;;16.33;11.05;;;;;;;11.23;100.00;100217.22;5089383;28;20031;-78
2024/02/25 06:50:12;;;;;;;20.20;10.82;;;;;;;11.21;100.00;100250.53;5071044;28;20035;-79
2024/02/25 06:52:37;;;;;;;16.17;9.90;;;;;;;11.15;100.00;100248.72;5089114;28;20032;-78
2024/02/25 06:55:04;;;;;;;16.52;10.20;;;;;;;11.13;100.00;100235.59;5089520;28;20035;-78
2024/02/25 06:57:29;;;;;;;18.98;9.63;;;;;;;11.33;100.00;100223.94;5089161;28;20615;-77
2024/02/25 06:59:57;;;;;;;23.60;10.65;;;;;;;11.38;100.00;100232.09;5088445;28;20110;-78
2024/02/25 07:02:23;;;;;;;17.63;10.40;;;;;;;11.39;100.00;100234.53;5088637;28;20630;-79
2024/02/25 07:04:48;;;;;;;18.52;10.13;;;;;;;11.41;100.00;100235.13;5088771;28;20020;-80
2024/02/25 07:07:13;;;;;;;17.40;10.07;;;;;;;11.27;100.00;100221.09;5088850;28;20035;-78
2024/02/25 07:09:39;;;;;;;17.55;10.95;;;;;;;11.56;100.00;100223.28;5088975;28;20107;-79
2024/02/25 07:12:05;;;;;;;22.02;12.40;;;;;;;11.73;100.00;100245.72;5088880;28;20028;-79
2024/02/25 07:14:30;;;;;;;23.40;16.00;;;;;;;11.68;100.00;100216.16;5089199;28;20028;-80
2024/02/25 07:16:56;;;;;;;23.85;16.48;;;;;;;11.77;100.00;100240.72;5088114;28;20072;-79
2024/02/25 07:19:21;;;;;;;23.27;16.75;;;;;;;11.76;100.00;100215.88;5088963;28;20028;-78
2024/02/25 07:21:47;;;;;;;21.20;13.90;;;;;;;11.86;100.00;100244.75;5088900;28;20043;-79
2024/02/25 07:24:12;;;;;;;23.75;14.95;;;;;;;11.98;100.00;100226.97;5089255;28;20020;-78
2024/02/25 07:26:38;;;;;;;21.17;11.93;;;;;;;11.72;100.00;100208.53;5088068;28;20044;-79
2024/02/25 07:29:03;;;;;;;19.17;11.90;;;;;;;12.23;100.00;100234.06;5088365;28;20116;-78
2024/02/25 07:31:28;;;;;;;18.45;11.07;;;;;;;12.13;100.00;100223.09;5088617;28;20028;-77
2024/02/25 07:33:54;;;;;;;18.70;11.38;;;;;;;12.06;100.00;100223.97;5088327;28;20032;-78
2024/02/25 07:36:19;;;;;;;20.27;12.50;;;;;;;12.19;100.00;100231.00;5079510;28;20124;-78
2024/02/25 07:38:45;;;;;;;19.75;13.10;;;;;;;12.06;100.00;100207.94;5088144;28;20024;-77
2024/02/25 07:41:10;;;;;;;23.38;14.93;;;;;;;12.23;100.00;100231.38;5070390;28;20116;-78
2024/02/25 07:43:38;;;;;;;23.50;14.90;;;;;;;12.18;100.00;100236.59;5069968;28;20035;-78
2024/02/25 07:46:04;;;;;;;24.63;20.38;;;;;;;12.55;100.00;100244.56;5088173;28;20399;-77
2024/02/25 07:48:30;;;;;;;32.80;23.67;;;;;;;12.88;100.00;100243.25;5069237;28;20462;-78
2024/02/25 07:50:55;;;;;;;29.42;19.33;;;;;;;14.13;100.00;100223.28;5088631;28;20066;-77
2024/02/25 07:53:21;;;;;;;26.02;18.58;;;;;;;15.95;100.00;100251.75;5088068;28;20045;-78
2024/02/25 07:55:47;;;;;;;21.75;11.60;;;;;;;15.72;100.00;100241.22;5087710;28;20055;-77
2024/02/25 07:58:12;;;;;;;22.88;12.18;;;;;;;16.54;97.49;100252.97;5087821;28;20096;-77
2024/02/25 08:00:37;;;;;;;19.45;11.25;;;;;;;17.46;81.57;100269.94;5086601;28;20024;-77
2024/02/25 08:03:03;;;;;;;21.67;11.52;;;;;;;14.94;99.98;100236.56;5087734;28;20520;-77
2024/02/25 08:05:29;;;;;;;18.42;11.00;;;;;;;13.58;100.00;100215.72;5069684;28;20413;-78
2024/02/25 08:07:54;;;;;;;19.40;11.00;;;;;;;13.48;100.00;100218.97;5069650;28;20024;-77
2024/02/25 08:10:20;;;;;;;18.10;11.50;;;;;;;15.15;100.00;100240.41;5087675;28;20043;-78
2024/02/25 08:12:47;;;;;;;17.80;10.20;;;;;;;13.91;100.00;100247.22;5087898;28;20455;-76
2024/02/25 08:15:15;;;;;;;17.98;10.63;;;;;;;13.64;100.00;100228.97;5088236;28;20036;-78
2024/02/25 08:17:40;;;;;;;18.52;11.07;;;;;;;15.09;100.00;100227.94;5087764;28;20118;-76
2024/02/25 08:20:06;;;;;;;21.95;10.63;;;;;;;16.39;95.77;100267.09;5087347;28;20112;-78
2024/02/25 08:22:33;;;;;;;18.55;10.80;;;;;;;15.71;99.17;100247.66;5087733;28;20032;-77
2024/02/25 08:25:01;;;;;;;15.63;9.43;;;;;;;15.05;100.00;100232.97;5087780;28;20024;-77
2024/02/25 08:27:32;;;;;;;15.57;9.98;;;;;;;14.91;100.00;100231.69;5086922;28;20044;-77
2024/02/25 08:29:58;;;;;;;17.17;9.43;;;;;;;14.05;100.00;100219.09;5086875;28;20122;-78
2024/02/25 08:32:24;;;;;;;20.30;11.82;;;;;;;14.55;100.00;100243.66;5087462;28;20028;-77
2024/02/25 08:34:53;;;;;;;20.27;12.25;;;;;;;14.21;100.00;100238.19;5087233;28;20413;-77
2024/02/25 08:37:23;;;;;;;25.15;13.07;;;;;;;14.43;100.00;100247.19;5086981;28;20054;-77
2024/02/25 08:39:52;;;;;;;26.23;15.27;;;;;;;15.84;99.78;100233.88;5087064;28;20039;-77
2024/02/25 08:42:18;;;;;;;18.95;10.18;;;;;;;15.98;99.27;100231.63;5086977;28;20028;-77
2024/02/25 08:44:47;;;;;;;16.30;9.20;;;;;;;14.40;100.00;100225.38;5086935;28;20487;-77
2024/02/25 08:47:13;;;;;;;15.90;9.52;;;;;;;14.40;100.00;100246.84;5077829;28;20127;-78
2024/02/25 08:49:38;;;;;;;22.52;10.80;;;;;;;14.22;100.00;100223.69;5086826;28;20483;-78
2024/02/25 08:52:05;;;;;;;17.65;9.23;;;;;;;14.17;100.00;100218.25;5086622;28;20028;-77
2024/02/25 08:54:31;;;;;;;17.98;10.45;;;;;;;14.33;100.00;100225.53;5086732;28;20036;-77
2024/02/25 08:56:57;;;;;;;17.15;9.60;;;;;;;14.80;100.00;100219.16;5071936;28;20039;-78
2024/02/25 08:59:23;;;;;;;20.85;11.13;;;;;;;15.26;100.00;100201.91;5086778;28;20127;-78
2024/02/25 09:01:48;;;;;;;16.30;9.60;;;;;;;15.30;99.49;100206.75;5087580;28;20111;-77
2024/02/25 09:04:14;;;;;;;16.85;9.73;;;;;;;15.27;99.96;100192.75;5069005;28;20382;-78
2024/02/25 09:06:40;;;;;;;20.60;10.10;;;;;;;15.08;100.00;100194.09;5087109;28;20405;-77
2024/02/25 09:09:05;;;;;;;17.45;10.27;;;;;;;15.10;100.00;100189.28;5068847;28;20413;-78
2024/02/25 09:11:31;;;;;;;19.30;11.48;;;;;;;15.32;100.00;100183.16;5087482;28;20039;-77
2024/02/25 09:13:57;;;;;;;17.38;9.35;;;;;;;15.50;100.00;100190.13;5087631;28;20024;-78
2024/02/25 09:16:22;;;;;;;19.40;9.10;;;;;;;15.62;99.11;100199.69;5087759;28;20043;-77
2024/02/25 09:18:51;;;;;;;13.02;8.60;;;;;;;16.07;95.61;100195.97;5091040;28;20429;-78
2024/02/25 09:21:16;;;;;;;16.50;9.25;;;;;;;15.72;95.61;100158.72;5097433;28;20092;-78
2024/02/25 09:23:42;;;;;;;17.27;10.07;;;;;;;16.10;95.79;100178.53;5096755;28;20068;-78
2024/02/25 09:26:08;;;;;;;18.92;8.85;;;;;;;16.41;90.97;100193.09;5096656;28;20032;-78
2024/02/25 09:28:35;;;;;;;17.02;9.15;;;;;;;16.55;92.66;100168.44;5097861;28;20028;-78
2024/02/25 09:31:00;;;;;;;14.10;8.82;;;;;;;15.94;92.43;100137.19;5096285;28;20039;-77
2024/02/25 09:33:30;;;;;;;15.27;8.57;;;;;;;16.41;90.89;100168.88;5096427;28;20088;-77
2024/02/25 09:36:04;;;;;;;16.88;9.07;;;;;;;16.20;94.27;100164.34;5078278;28;20032;-78
2024/02/25 09:38:30;;;;;;;16.33;8.40;;;;;;;16.64;90.96;100140.78;5095323;28;20177;-78
2024/02/25 09:40:59;;;;;;;14.80;8.48;;;;;;;16.57;88.10;100128.59;5095781;28;20032;-77
2024/02/25 09:43:25;;;;;;;14.43;8.57;;;;;;;16.83;88.58;100148.50;5095964;28;20024;-77
2024/02/25 09:45:53;;;;;;;26.27;14.40;;;;;;;17.10;86.16;100163.78;5095921;28;20028;-76
2024/02/25 09:48:20;;;;;;;17.88;9.52;;;;;;;16.94;87.22;100155.59;5076792;28;20035;-78
2024/02/25 09:50:49;;;;;;;16.83;9.70;;;;;;;16.93;89.74;100155.84;5093532;28;20097;-76
2024/02/25 09:53:14;;;;;;;15.45;9.07;;;;;;;17.01;87.72;100123.84;5075716;28;20114;-77
2024/02/25 09:55:40;;;;;;;18.23;10.32;;;;;;;17.10;87.39;100126.06;5094075;28;20070;-77
2024/02/25 09:58:07;;;;;;;16.65;8.88;;;;;;;17.06;86.05;100141.91;5094217;28;20420;-77
2024/02/25 10:00:32;;;;;;;19.80;8.88;;;;;;;17.24;80.96;100095.69;5093811;28;20032;-78
2024/02/25 10:02:58;;;;;;;16.65;8.23;;;;;;;17.50;78.98;100111.97;5093520;28;20035;-76
2024/02/25 10:05:23;;;;;;;15.45;6.53;;;;;;;17.71;76.06;100120.94;5075574;28;20031;-77
2024/02/25 10:08:11;;;;;;;13.43;7.80;;;;;;;17.63;76.28;100119.59;5093232;28;20103;-77
2024/02/25 10:10:37;;;;;;;11.40;6.78;;;;;;;17.99;76.68;100117.00;5093556;28;20032;-78
2024/02/25 10:13:04;;;;;;;10.43;6.18;;;;;;;18.07;71.81;100118.38;5092836;28;20032;-77
2024/02/25 10:15:29;;;;;;;12.88;6.65;;;;;;;18.19;72.66;100110.03;5092258;28;20020;-78
2024/02/25 10:17:55;;;;;;;12.15;6.13;;;;;;;18.23;72.81;100097.63;5091349;28;20035;-77
2024/02/25 10:20:20;;;;;;;9.63;5.45;;;;;;;17.61;72.76;100102.03;5090106;28;20039;-77
2024/02/25 10:22:46;;;;;;;16.80;6.45;;;;;;;18.16;71.05;100100.56;5089900;28;20063;-77
2024/02/25 10:25:11;;;;;;;11.98;6.30;;;;;;;18.22;68.93;100090.59;5088669;28;20032;-77
2024/02/25 10:27:37;;;;;;;8.80;5.32;;;;;;;18.21;68.98;100086.28;5088318;28;20467;-77
2024/02/25 10:30:05;;;;;;;11.18;5.70;;;;;;;18.12;69.70;100060.88;5088100;28;20475;-78
2024/02/25 10:32:31;;;;;;;;;;;;;;;18.59;67.92;100073.28;5087706;28;20085;-78
2024/02/25 10:34:58;;;;;;;11.07;6.93;;;;;;;18.95;67.45;100073.28;5077566;28;19912;-78
2024/02/25 10:37:27;;;;;;;12.43;6.50;;;;;;;18.94;64.78;100050.03;5086584;28;20051;-78
2024/02/25 10:39:54;;;;;;;13.88;5.82;;;;;;;19.16;61.84;100058.59;5086614;28;20038;-76
2024/02/25 10:42:23;;;;;;;8.60;5.63;;;;;;;18.95;64.28;100054.34;5086476;28;20671;-77
2024/02/25 10:44:54;;;;;;;9.80;5.50;;;;;;;19.09;62.65;100043.78;5084170;28;20034;-76
2024/02/25 10:47:20;;;;;;;20.15;8.07;;;;;;;19.43;62.05;100050.13;5086632;28;20036;-77
2024/02/25 10:49:46;;;;;;;10.10;6.47;;;;;;;19.86;60.19;100055.06;5086295;28;20032;-77
2024/02/25 10:52:13;;;;;;;12.07;6.53;;;;;;;20.19;61.80;100053.44;5087343;28;20469;-76
2024/02/25 10:54:41;;;;;;;9.57;6.00;;;;;;;20.54;60.16;100048.81;5089785;28;20028;-77
2024/02/25 10:57:08;;;;;;;12.85;6.00;;;;;;;20.50;61.11;100034.22;5089358;28;20032;-78
2024/02/25 10:59:34;;;;;;;10.63;5.90;;;;;;;20.96;58.91;100043.78;5075318;28;20039;-77
2024/02/25 11:02:00;;;;;;;12.32;6.30;;;;;;;20.64;58.42;100021.63;5088729;28;20032;-77
2024/02/25 11:04:27;;;;;;;11.07;6.03;;;;;;;21.73;55.22;100040.13;5089559;28;20020;-77